createdAt,value
2019-06-26T00:01:12.128Z,9.10
2019-06-26T00:03:20.574Z,8.33
2019-06-26T00:05:30.608Z,10.80
2019-06-26T00:07:52.762Z,8.43
2019-06-26T00:10:05.636Z,8.03
2019-06-26T00:12:30.256Z,8.20
2019-06-26T00:14:38.884Z,9.60
2019-06-26T00:17:18.389Z,9.17
2019-06-26T00:19:51.011Z,9.00
2019-06-26T00:22:21.660Z,8.97
2019-06-26T00:24:29.039Z,9.53
2019-06-26T00:26:36.712Z,8.93
2019-06-26T00:28:45.771Z,8.67
2019-06-26T00:31:12.909Z,8.27
2019-06-26T00:33:23.183Z,8.20
2019-06-26T00:35:39.291Z,8.97
2019-06-26T00:37:58.010Z,8.63
2019-06-26T00:40:13.254Z,9.00
2019-06-26T00:42:26.418Z,8.83
2019-06-26T00:44:47.450Z,9.10
2019-06-26T00:46:56.315Z,9.00
2019-06-26T00:49:03.385Z,8.33
2019-06-26T00:51:09.636Z,8.30
2019-06-26T00:53:18.313Z,8.30
2019-06-26T00:55:27.790Z,8.60
2019-06-26T00:57:39.567Z,8.90
2019-06-26T00:59:45.231Z,9.57
2019-06-26T01:01:58.493Z,9.00
2019-06-26T01:04:21.100Z,8.80
2019-06-26T01:07:04.703Z,8.07
2019-06-26T01:09:16.443Z,9.43
2019-06-26T01:11:39.076Z,9.17
2019-06-26T01:14:16.169Z,8.70
2019-06-26T01:16:21.711Z,8.20
2019-06-26T01:18:28.088Z,8.33
2019-06-26T01:20:33.854Z,9.03
2019-06-26T01:23:08.732Z,8.50
2019-06-26T01:25:19.121Z,9.03
2019-06-26T01:27:26.106Z,8.93
2019-06-26T01:29:32.681Z,8.43
2019-06-26T01:31:38.659Z,9.30
2019-06-26T01:33:51.126Z,8.80
2019-06-26T01:36:48.101Z,9.17
2019-06-26T01:39:01.085Z,9.10
2019-06-26T01:41:30.750Z,9.27
2019-06-26T01:43:42.626Z,9.50
2019-06-26T01:45:48.168Z,9.60
2019-06-26T01:47:54.400Z,12.87
2019-06-26T01:50:01.658Z,12.37
2019-06-26T01:54:48.315Z,11.07
2019-06-26T01:57:28.378Z,10.60
2019-06-26T01:59:36.429Z,10.20
2019-06-26T02:02:05.110Z,13.57
2019-06-26T02:04:18.090Z,9.10
2019-06-26T02:06:27.285Z,10.40
2019-06-26T02:08:33.323Z,9.83
2019-06-26T02:13:47.066Z,8.90
2019-06-26T02:15:59.467Z,9.40
2019-06-26T02:18:06.716Z,9.90
2019-06-26T02:20:15.548Z,9.63
2019-06-26T02:22:28.833Z,9.43
2019-06-26T02:24:47.318Z,9.60
2019-06-26T02:26:53.047Z,9.27
2019-06-26T02:29:15.246Z,8.80
2019-06-26T02:31:26.287Z,9.67
2019-06-26T02:33:33.012Z,9.00
2019-06-26T02:35:53.968Z,8.83
2019-06-26T02:38:19.691Z,9.30
2019-06-26T02:40:34.613Z,9.27
2019-06-26T02:42:50.263Z,8.67
2019-06-26T02:45:09.872Z,9.43
2019-06-26T02:47:20.018Z,9.97
2019-06-26T02:49:44.594Z,8.70
2019-06-26T02:52:11.557Z,8.60
2019-06-26T02:54:22.087Z,9.80
2019-06-26T02:56:29.602Z,11.97
2019-06-26T02:58:46.177Z,9.30
2019-06-26T03:01:02.194Z,10.83
2019-06-26T03:03:13.582Z,9.87
2019-06-26T03:05:20.433Z,9.37
2019-06-26T03:07:33.519Z,9.77
2019-06-26T03:09:53.468Z,9.60
2019-06-26T03:12:11.278Z,9.47
2019-06-26T03:14:39.539Z,10.10
2019-06-26T03:16:45.389Z,9.30
2019-06-26T03:18:59.782Z,9.87
2019-06-26T03:21:12.534Z,9.50
2019-06-26T03:23:22.486Z,9.60
2019-06-26T03:28:51.771Z,9.80
2019-06-26T03:31:09.759Z,9.97
2019-06-26T03:33:41.712Z,9.73
2019-06-26T03:35:49.157Z,9.40
2019-06-26T03:38:39.519Z,9.50
2019-06-26T03:40:58.932Z,9.83
2019-06-26T03:43:13.818Z,10.80
2019-06-26T03:45:33.299Z,10.57
2019-06-26T03:48:03.602Z,10.00
2019-06-26T03:50:18.720Z,9.50
2019-06-26T03:52:54.228Z,10.60
2019-06-26T03:55:13.121Z,9.60
2019-06-26T03:57:45.379Z,9.37
2019-06-26T03:59:51.597Z,10.50
2019-06-26T04:01:57.438Z,10.50
2019-06-26T04:04:03.464Z,11.83
2019-06-26T04:06:42.949Z,10.13
2019-06-26T04:08:55.491Z,10.10
2019-06-26T04:13:45.709Z,9.83
2019-06-26T04:16:10.615Z,10.10
2019-06-26T04:18:21.336Z,10.43
2019-06-26T04:20:40.161Z,415.10
2019-06-26T04:22:47.737Z,318.93
2019-06-26T04:25:05.260Z,384.43
2019-06-26T04:27:12.727Z,311.37
2019-06-26T04:29:26.683Z,334.53
2019-06-26T04:31:33.311Z,366.23
2019-06-26T04:33:56.799Z,284.10
2019-06-26T04:36:24.803Z,158.20
2019-06-26T04:38:40.134Z,150.90
2019-06-26T04:41:01.971Z,101.73
2019-06-26T04:43:30.661Z,76.80
2019-06-26T04:46:02.095Z,61.27
2019-06-26T04:48:07.673Z,42.10
2019-06-26T04:50:15.043Z,61.23
2019-06-26T04:52:26.424Z,379.53
2019-06-26T04:55:05.331Z,695.90
2019-06-26T04:57:38.475Z,377.40
2019-06-26T05:00:06.825Z,363.83
2019-06-26T05:02:37.960Z,229.50
2019-06-26T05:04:44.343Z,147.67
2019-06-26T05:06:52.832Z,124.53
2019-06-26T05:09:03.785Z,80.50
2019-06-26T05:11:12.726Z,62.77
2019-06-26T05:13:18.529Z,41.40
2019-06-26T05:15:39.681Z,547.50
2019-06-26T05:17:50.492Z,566.63
2019-06-26T05:20:12.674Z,303.47
2019-06-26T05:22:18.589Z,336.27
2019-06-26T05:24:32.450Z,253.80
2019-06-26T05:26:41.085Z,173.03
2019-06-26T05:28:47.070Z,124.77
2019-06-26T05:30:54.510Z,149.73
2019-06-26T05:33:30.935Z,87.70
2019-06-26T05:35:41.186Z,104.20
2019-06-26T05:38:15.479Z,81.07
2019-06-26T05:40:24.058Z,157.67
2019-06-26T05:42:53.178Z,166.53
2019-06-26T05:45:01.610Z,120.63
2019-06-26T05:47:12.167Z,31.27
2019-06-26T05:49:53.910Z,220.20
2019-06-26T05:52:03.371Z,384.27
2019-06-26T05:54:37.065Z,460.40
2019-06-26T05:56:45.303Z,148.87
2019-06-26T05:58:59.638Z,140.27
2019-06-26T06:01:38.498Z,69.17
2019-06-26T06:04:18.457Z,484.87
2019-06-26T06:06:40.581Z,272.23
2019-06-26T06:08:43.694Z,169.83
2019-06-26T06:10:58.004Z,77.37
2019-06-26T06:13:02.255Z,80.67
2019-06-26T06:15:10.846Z,45.90
2019-06-26T06:17:44.652Z,36.10
2019-06-26T06:20:00.039Z,33.80
2019-06-26T06:22:06.393Z,36.30
2019-06-26T06:24:15.145Z,36.83
2019-06-26T06:26:30.000Z,43.27
2019-06-26T06:28:35.977Z,24.83
2019-06-26T06:30:41.938Z,28.80
2019-06-26T06:32:47.534Z,30.23
2019-06-26T06:37:38.695Z,26.53
2019-06-26T06:39:46.935Z,205.77
2019-06-26T06:42:01.768Z,20.97
2019-06-26T06:44:07.483Z,21.03
2019-06-26T06:46:13.472Z,1999.90
2019-06-26T06:48:19.687Z,29.57
2019-06-26T06:50:25.210Z,1021.60
2019-06-26T06:52:34.562Z,38.60
2019-06-26T06:54:41.211Z,23.83
2019-06-26T06:56:47.320Z,22.57
2019-06-26T06:58:56.600Z,635.37
2019-06-26T07:01:03.087Z,556.30
2019-06-26T07:03:08.703Z,583.10
2019-06-26T07:05:14.921Z,278.67
2019-06-26T07:07:23.223Z,244.37
2019-06-26T07:09:35.072Z,256.40
2019-06-26T07:11:41.136Z,266.13
2019-06-26T07:13:46.681Z,274.13
2019-06-26T07:15:52.571Z,267.80
2019-06-26T07:17:58.527Z,273.13
2019-06-26T07:20:04.664Z,511.77
2019-06-26T07:22:10.853Z,1405.73
2019-06-26T07:24:16.740Z,1236.47
2019-06-26T07:26:24.269Z,684.63
2019-06-26T07:28:33.432Z,631.10
2019-06-26T07:30:43.434Z,663.07
2019-06-26T07:32:50.711Z,653.63
2019-06-26T07:34:56.616Z,646.77
2019-06-26T07:37:02.346Z,679.87
2019-06-26T07:39:08.974Z,702.50
2019-06-26T07:41:14.516Z,704.20
2019-06-26T07:43:20.063Z,735.30
2019-06-26T07:45:26.434Z,732.60
2019-06-26T07:47:43.034Z,727.70
2019-06-26T07:49:47.766Z,726.70
2019-06-26T07:51:53.614Z,728.57
2019-06-26T07:53:59.191Z,741.10
2019-06-26T07:56:05.000Z,750.47
2019-06-26T07:58:10.860Z,714.43
2019-06-26T08:00:16.733Z,748.57
2019-06-26T08:02:22.629Z,804.27
2019-06-26T08:04:28.986Z,802.70
2019-06-26T08:06:38.818Z,822.30
2019-06-26T08:08:47.761Z,890.33
2019-06-26T08:10:53.638Z,851.40
2019-06-26T08:12:59.193Z,838.30
2019-06-26T08:15:05.037Z,926.17
2019-06-26T08:17:11.203Z,1012.80
2019-06-26T08:19:16.657Z,943.57
2019-06-26T08:21:22.516Z,908.40
2019-06-26T08:23:32.097Z,1063.10
2019-06-26T08:25:40.382Z,1313.43
2019-06-26T08:27:53.951Z,1025.60
2019-06-26T08:29:59.966Z,1007.03
2019-06-26T08:32:06.031Z,938.10
2019-06-26T08:34:11.582Z,944.37
2019-06-26T08:36:17.030Z,965.27
2019-06-26T08:38:22.822Z,934.30
2019-06-26T08:40:28.806Z,952.57
2019-06-26T08:42:35.199Z,904.03
2019-06-26T08:44:44.768Z,898.80
2019-06-26T08:46:57.044Z,889.73
2019-06-26T08:49:02.667Z,886.50
2019-06-26T08:51:08.120Z,901.90
2019-06-26T08:53:14.205Z,916.73
2019-06-26T08:55:19.876Z,1012.20
2019-06-26T08:57:25.442Z,1035.60
2019-06-26T08:59:30.995Z,1068.60
2019-06-26T09:01:37.075Z,1222.57
2019-06-26T09:03:42.818Z,1100.20
2019-06-26T09:05:50.155Z,932.43
2019-06-26T09:08:02.949Z,884.90
2019-06-26T09:10:10.484Z,905.47
2019-06-26T09:12:16.300Z,832.23
2019-06-26T09:14:22.087Z,802.30
2019-06-26T09:16:27.718Z,803.17
2019-06-26T09:18:35.733Z,778.27
2019-06-26T09:20:40.881Z,760.17
2019-06-26T09:22:46.638Z,771.77
2019-06-26T09:24:55.880Z,733.00
2019-06-26T09:27:01.598Z,1053.17
2019-06-26T09:29:07.051Z,739.97
2019-06-26T09:31:12.787Z,836.43
2019-06-26T09:33:19.665Z,732.77
2019-06-26T09:35:26.638Z,772.43
2019-06-26T09:37:36.152Z,1040.40
2019-06-26T09:39:42.638Z,718.63
2019-06-26T09:41:48.518Z,810.20
2019-06-26T09:43:53.980Z,711.37
2019-06-26T09:45:59.512Z,696.80
2019-06-26T09:48:05.044Z,689.93
2019-06-26T09:50:10.931Z,680.27
2019-06-26T09:52:16.922Z,635.63
2019-06-26T09:54:22.609Z,648.17
2019-06-26T09:56:31.422Z,595.93
2019-06-26T09:58:42.928Z,609.23
2019-06-26T10:00:48.528Z,605.60
2019-06-26T10:02:54.365Z,591.87
2019-06-26T10:04:59.898Z,566.73
2019-06-26T10:07:05.667Z,562.80
2019-06-26T10:09:11.173Z,602.83
2019-06-26T10:11:16.935Z,683.07
2019-06-26T10:13:22.792Z,673.87
2019-06-26T10:15:28.394Z,1462.30
2019-06-26T10:17:34.814Z,1750.53
2019-06-26T10:19:41.878Z,1490.87
2019-06-26T10:21:50.493Z,1572.83
2019-06-26T10:23:56.067Z,1080.63
2019-06-26T10:26:01.863Z,977.73
2019-06-26T10:28:07.271Z,917.20
2019-06-26T10:30:13.516Z,879.67
2019-06-26T10:32:19.082Z,887.07
2019-06-26T10:34:24.778Z,848.53
2019-06-26T10:36:30.667Z,826.67
2019-06-26T10:38:37.023Z,854.33
2019-06-26T10:40:46.924Z,791.70
2019-06-26T10:42:58.492Z,843.57
2019-06-26T10:45:04.425Z,1081.67
2019-06-26T10:47:10.739Z,1157.87
2019-06-26T10:49:26.616Z,1151.57
2019-06-26T10:51:23.473Z,1048.10
2019-06-26T10:53:29.282Z,1027.83
2019-06-26T10:55:35.241Z,1008.20
2019-06-26T10:57:42.104Z,1021.17
2019-06-26T10:59:50.383Z,1022.80
2019-06-26T11:01:57.081Z,1037.60
2019-06-26T11:04:03.047Z,1013.00
2019-06-26T11:06:08.897Z,1174.97
2019-06-26T11:08:15.695Z,1656.40
2019-06-26T11:10:21.385Z,1260.77
2019-06-26T11:12:27.248Z,1214.90
2019-06-26T11:14:32.743Z,1999.90
2019-06-26T11:16:38.255Z,1168.40
2019-06-26T11:18:44.275Z,1867.00
2019-06-26T11:20:52.146Z,1152.73
2019-06-26T11:23:02.061Z,1179.00
2019-06-26T11:25:07.673Z,1169.40
2019-06-26T11:27:13.902Z,1282.87
2019-06-26T11:29:19.385Z,1258.17
2019-06-26T11:31:24.773Z,1269.40
2019-06-26T11:33:30.604Z,1216.13
2019-06-26T11:35:36.280Z,1259.43
2019-06-26T11:37:41.892Z,1267.67
2019-06-26T11:39:48.474Z,1273.20
2019-06-26T11:41:58.409Z,1240.53
2019-06-26T11:44:07.984Z,1216.40
2019-06-26T11:46:13.442Z,1213.93
2019-06-26T11:48:19.443Z,1187.57
2019-06-26T11:50:33.092Z,1230.00
2019-06-26T11:52:48.787Z,1720.40
2019-06-26T11:55:04.204Z,1377.27
2019-06-26T11:57:23.299Z,1289.30
2019-06-26T11:59:38.712Z,1999.90
2019-06-26T12:01:44.451Z,1825.27
2019-06-26T12:03:52.955Z,1999.90
2019-06-26T12:06:18.631Z,1872.17
2019-06-26T12:08:54.655Z,1521.47
2019-06-26T12:11:06.762Z,1382.63
2019-06-26T12:13:19.347Z,1374.73
2019-06-26T12:15:28.679Z,1304.07
2019-06-26T12:17:40.755Z,1254.80
2019-06-26T12:19:55.881Z,1451.07
2019-06-26T12:22:18.904Z,1368.77
2019-06-26T12:24:29.075Z,1331.53
2019-06-26T12:26:39.202Z,1300.27
2019-06-26T12:29:22.887Z,1188.83
2019-06-26T12:31:29.989Z,1123.37
2019-06-26T12:34:11.854Z,1364.27
2019-06-26T12:36:50.898Z,1282.93
2019-06-26T12:38:56.970Z,1211.93
2019-06-26T12:41:33.013Z,1332.83
2019-06-26T12:43:52.232Z,1240.77
2019-06-26T12:46:39.946Z,1214.47
2019-06-26T12:49:07.712Z,1195.53
2019-06-26T12:51:53.088Z,1181.87
2019-06-26T12:53:59.774Z,1175.67
2019-06-26T12:56:17.662Z,1171.37
2019-06-26T12:58:30.075Z,1610.57
2019-06-26T13:00:47.582Z,1250.90
2019-06-26T13:03:02.035Z,1164.27
2019-06-26T13:05:19.808Z,1241.27
2019-06-26T13:07:42.385Z,1238.13
2019-06-26T13:09:55.785Z,1147.00
2019-06-26T13:12:03.767Z,1128.20
2019-06-26T13:14:22.658Z,1135.10
2019-06-26T13:19:48.508Z,1253.43
2019-06-26T13:22:02.075Z,1150.43
2019-06-26T13:27:00.733Z,1031.53
2019-06-26T13:29:14.821Z,1061.90
2019-06-26T13:31:27.140Z,1000.87
2019-06-26T13:33:38.892Z,974.73
2019-06-26T13:36:33.579Z,944.73
2019-06-26T13:39:05.652Z,934.67
2019-06-26T13:41:19.290Z,936.60
2019-06-26T13:43:31.581Z,888.27
2019-06-26T13:46:18.885Z,938.43
2019-06-26T13:48:35.825Z,841.17
2019-06-26T13:50:46.789Z,829.77
2019-06-26T13:53:20.361Z,846.20
2019-06-26T13:55:34.966Z,906.83
2019-06-26T13:57:40.846Z,933.53
2019-06-26T14:09:16.740Z,853.80
2019-06-26T14:11:22.846Z,886.53
2019-06-26T14:13:28.344Z,896.90
2019-06-26T14:15:33.815Z,868.23
2019-06-26T14:17:39.705Z,848.83
2019-06-26T14:19:45.417Z,981.57
2019-06-26T14:22:05.814Z,844.70
2019-06-26T14:24:15.291Z,837.83
2019-06-26T14:26:23.310Z,837.90
2019-06-26T14:28:30.234Z,815.97
2019-06-26T14:30:36.249Z,811.20
2019-06-26T14:32:47.641Z,795.03
2019-06-26T14:35:01.178Z,750.93
2019-06-26T14:37:16.114Z,780.97
2019-06-26T14:39:27.692Z,749.10
2019-06-26T14:41:34.364Z,751.20
2019-06-26T14:43:44.130Z,747.60
2019-06-26T14:45:50.067Z,801.30
2019-06-26T14:48:05.736Z,698.03
2019-06-26T14:50:21.560Z,808.50
2019-06-26T14:52:28.285Z,736.20
2019-06-26T14:54:51.347Z,699.50
2019-06-26T14:56:57.981Z,652.03
2019-06-26T14:59:04.333Z,657.87
2019-06-26T15:01:10.797Z,652.20
2019-06-26T15:03:17.605Z,663.20
2019-06-26T15:05:27.727Z,642.57
2019-06-26T15:07:35.795Z,658.63
2019-06-26T15:09:47.575Z,633.60
2019-06-26T15:12:02.986Z,626.00
2019-06-26T15:14:09.448Z,964.13
2019-06-26T15:16:29.509Z,630.80
2019-06-26T15:18:35.224Z,613.50
2019-06-26T15:20:44.877Z,603.97
2019-06-26T15:23:04.455Z,577.63
2019-06-26T15:25:11.132Z,555.37
2019-06-26T15:27:18.402Z,534.93
2019-06-26T15:29:26.057Z,523.17
2019-06-26T15:31:33.884Z,532.73
2019-06-26T15:33:40.936Z,593.30
2019-06-26T15:36:03.578Z,554.73
2019-06-26T15:38:14.891Z,565.13
2019-06-26T15:40:21.925Z,603.30
2019-06-26T15:43:15.255Z,690.77
2019-06-26T15:45:21.804Z,660.00
2019-06-26T15:47:28.154Z,631.00
2019-06-26T15:49:41.747Z,610.40
2019-06-26T15:51:52.077Z,590.97
2019-06-26T15:54:19.398Z,581.77
2019-06-26T15:56:31.761Z,575.70
2019-06-26T15:58:53.291Z,569.50
2019-06-26T16:01:20.438Z,538.77
2019-06-26T16:03:28.891Z,537.80
2019-06-26T16:05:49.157Z,524.50
2019-06-26T16:08:18.266Z,508.43
2019-06-26T16:10:24.644Z,499.50
2019-06-26T16:12:39.554Z,498.93
2019-06-26T16:15:07.426Z,487.83
2019-06-26T16:17:40.641Z,479.47
2019-06-26T16:20:29.256Z,458.97
2019-06-26T16:22:47.722Z,457.07
2019-06-26T16:24:59.435Z,448.73
2019-06-26T16:27:12.549Z,445.30
2019-06-26T16:29:27.406Z,427.47
2019-06-26T16:31:33.318Z,422.43
2019-06-26T16:33:53.738Z,401.63
2019-06-26T16:36:02.637Z,404.87
2019-06-26T16:38:13.096Z,378.50
2019-06-26T16:40:19.903Z,386.27
2019-06-26T16:42:27.051Z,376.37
2019-06-26T16:44:39.706Z,364.77
2019-06-26T16:46:47.215Z,348.87
2019-06-26T16:48:56.015Z,333.23
2019-06-26T16:51:15.770Z,335.90
2019-06-26T16:53:25.780Z,322.03
2019-06-26T16:55:35.701Z,317.73
2019-06-26T16:57:48.267Z,304.60
2019-06-26T17:00:08.779Z,299.23
2019-06-26T17:02:07.583Z,288.03
2019-06-26T17:04:25.367Z,301.73
2019-06-26T17:06:31.631Z,279.47
2019-06-26T17:08:40.960Z,269.40
2019-06-26T17:10:47.348Z,276.23
2019-06-26T17:12:53.736Z,257.93
2019-06-26T17:15:03.225Z,260.10
2019-06-26T17:17:12.549Z,251.53
2019-06-26T17:19:32.686Z,235.67
2019-06-26T17:21:39.315Z,230.77
2019-06-26T17:23:45.990Z,241.73
2019-06-26T17:25:57.038Z,225.63
2019-06-26T17:28:07.218Z,219.67
2019-06-26T17:30:13.443Z,209.50
2019-06-26T17:32:33.219Z,208.93
2019-06-26T17:34:53.512Z,207.20
2019-06-26T17:37:00.123Z,195.47
2019-06-26T17:39:13.359Z,189.27
2019-06-26T17:41:28.665Z,187.47
2019-06-26T17:43:36.225Z,184.47
2019-06-26T17:45:46.065Z,177.07
2019-06-26T17:48:01.132Z,176.03
2019-06-26T17:50:13.279Z,171.40
2019-06-26T17:52:22.867Z,169.00
2019-06-26T17:54:30.478Z,162.97
2019-06-26T17:56:36.948Z,155.47
2019-06-26T17:58:43.801Z,153.00
2019-06-26T18:01:02.798Z,153.40
2019-06-26T18:03:08.659Z,150.77
2019-06-26T18:05:25.506Z,150.23
2019-06-26T18:07:32.215Z,137.40
2019-06-26T18:09:40.970Z,140.90
2019-06-26T18:11:54.165Z,135.30
2019-06-26T18:14:10.757Z,137.50
2019-06-26T18:16:19.301Z,134.17
2019-06-26T18:18:26.302Z,130.93
2019-06-26T18:20:35.683Z,126.90
2019-06-26T18:22:41.629Z,128.00
2019-06-26T18:24:47.786Z,121.70
2019-06-26T18:26:55.086Z,116.50
2019-06-26T18:29:06.402Z,116.87
2019-06-26T18:31:12.051Z,114.93
2019-06-26T18:33:17.723Z,112.70
2019-06-26T18:35:23.514Z,113.40
2019-06-26T18:37:29.322Z,106.57
2019-06-26T18:39:34.807Z,106.30
2019-06-26T18:41:40.796Z,105.60
2019-06-26T18:43:47.270Z,102.90
2019-06-26T18:45:54.567Z,101.40
2019-06-26T18:48:02.417Z,94.33
2019-06-26T18:50:14.351Z,97.47
2019-06-26T18:52:19.903Z,97.97
2019-06-26T18:54:26.368Z,88.53
2019-06-26T18:56:31.996Z,89.93
2019-06-26T18:58:37.652Z,88.83
2019-06-26T19:00:43.240Z,90.20
2019-06-26T19:02:48.739Z,89.10
2019-06-26T19:04:55.247Z,82.23
2019-06-26T19:07:03.659Z,85.60
2019-06-26T19:09:13.171Z,76.90
2019-06-26T19:11:21.778Z,82.03
2019-06-26T19:13:27.682Z,72.90
2019-06-26T19:15:34.922Z,70.50
2019-06-26T19:17:42.564Z,78.13
2019-06-26T19:19:48.969Z,70.50
2019-06-26T19:21:54.621Z,64.83
2019-06-26T19:24:10.067Z,67.03
2019-06-26T19:26:10.736Z,74.00
2019-06-26T19:28:23.138Z,72.57
2019-06-26T19:30:27.757Z,63.67
2019-06-26T19:32:36.516Z,61.37
2019-06-26T19:34:41.487Z,66.17
2019-06-26T19:36:50.508Z,40.23
2019-06-26T19:38:54.820Z,38.57
2019-06-26T19:41:00.336Z,36.67
2019-06-26T19:43:10.880Z,34.67
2019-06-26T19:45:21.988Z,34.40
2019-06-26T19:47:28.299Z,32.17
2019-06-26T19:49:33.743Z,69.53
2019-06-26T19:51:39.709Z,214.30
2019-06-26T19:53:45.309Z,206.70
2019-06-26T19:55:51.044Z,426.33
2019-06-26T19:58:00.039Z,361.70
2019-06-26T20:00:08.725Z,225.87
2019-06-26T20:02:28.197Z,158.60
2019-06-26T20:04:37.079Z,125.37
2019-06-26T20:06:43.568Z,90.00
2019-06-26T20:08:57.434Z,76.90
2019-06-26T20:11:05.446Z,70.77
2019-06-26T20:13:13.668Z,61.33
2019-06-26T20:15:24.355Z,57.93
2019-06-26T20:17:37.869Z,58.73
2019-06-26T20:20:03.646Z,46.90
2019-06-26T20:22:19.118Z,46.40
2019-06-26T20:24:43.390Z,40.10
2019-06-26T20:26:48.864Z,39.37
2019-06-26T20:29:03.278Z,122.07
2019-06-26T20:31:22.298Z,527.73
2019-06-26T20:33:45.420Z,660.40
2019-06-26T20:36:07.716Z,423.60
2019-06-26T20:38:36.410Z,239.07
2019-06-26T20:40:45.734Z,163.23
2019-06-26T20:43:05.693Z,295.00
2019-06-26T20:45:12.907Z,378.97
2019-06-26T20:47:21.599Z,523.03
2019-06-26T20:49:53.093Z,294.80
2019-06-26T20:52:02.398Z,220.53
2019-06-26T20:54:20.972Z,506.40
2019-06-26T20:56:29.670Z,729.90
2019-06-26T20:58:44.615Z,293.87
2019-06-26T21:00:52.995Z,163.27
2019-06-26T21:03:07.511Z,140.20
2019-06-26T21:05:14.738Z,98.73
2019-06-26T21:07:34.401Z,93.53
2019-06-26T21:09:45.227Z,114.17
2019-06-26T21:11:59.319Z,68.70
2019-06-26T21:14:07.942Z,70.57
2019-06-26T21:16:20.257Z,64.40
2019-06-26T21:18:48.648Z,147.53
2019-06-26T21:21:01.244Z,650.63
2019-06-26T21:23:18.967Z,427.10
2019-06-26T21:25:25.661Z,317.27
2019-06-26T21:27:45.053Z,139.77
2019-06-26T21:29:52.848Z,93.80
2019-06-26T21:32:01.746Z,64.10
2019-06-26T21:34:11.640Z,39.63
2019-06-26T21:36:23.206Z,40.83
2019-06-26T21:38:30.978Z,32.00
2019-06-26T21:40:46.424Z,27.60
2019-06-26T21:42:55.832Z,26.60
2019-06-26T21:45:06.752Z,24.67
2019-06-26T21:47:12.442Z,21.27
2019-06-26T21:49:28.008Z,19.60
2019-06-26T21:51:43.498Z,20.67
2019-06-26T21:53:49.631Z,838.30
2019-06-26T21:56:01.515Z,492.10
2019-06-26T21:58:12.029Z,608.47
2019-06-26T22:00:19.758Z,221.20
2019-06-26T22:02:26.906Z,141.87
2019-06-26T22:04:37.968Z,95.30
2019-06-26T22:06:55.332Z,93.13
2019-06-26T22:09:06.940Z,71.57
2019-06-26T22:11:15.688Z,51.03
2019-06-26T22:13:24.675Z,48.90
2019-06-26T22:15:41.039Z,45.23
2019-06-26T22:17:52.076Z,43.87
2019-06-26T22:20:07.661Z,37.93
2019-06-26T22:22:14.961Z,33.97
2019-06-26T22:24:21.469Z,33.37
2019-06-26T22:26:33.396Z,34.20
2019-06-26T22:28:43.252Z,25.47
2019-06-26T22:31:00.392Z,25.50
2019-06-26T22:33:09.725Z,28.37
2019-06-26T22:35:17.147Z,24.10
2019-06-26T22:37:24.496Z,21.77
2019-06-26T22:39:30.697Z,23.30
2019-06-26T22:41:36.960Z,19.77
2019-06-26T22:43:47.613Z,21.97
2019-06-26T22:46:04.515Z,26.10
2019-06-26T22:48:17.204Z,17.30
2019-06-26T22:50:27.296Z,18.63
2019-06-26T22:52:34.830Z,17.33
2019-06-26T22:54:41.215Z,18.43
2019-06-26T22:56:47.525Z,18.20
2019-06-26T22:58:55.919Z,16.37
2019-06-26T23:01:03.452Z,17.60
2019-06-26T23:03:11.005Z,17.43
2019-06-26T23:05:20.372Z,16.87
2019-06-26T23:07:32.956Z,16.20
2019-06-26T23:09:42.084Z,15.20
2019-06-26T23:11:54.319Z,82.47
2019-06-26T23:14:11.848Z,259.77
2019-06-26T23:16:18.927Z,471.33
2019-06-26T23:18:38.614Z,345.43
2019-06-26T23:20:49.192Z,366.70
2019-06-26T23:23:01.055Z,234.67
2019-06-26T23:25:08.260Z,177.30
2019-06-26T23:27:19.742Z,135.00
2019-06-26T23:29:30.716Z,108.63
2019-06-26T23:31:49.185Z,96.97
2019-06-26T23:33:57.811Z,81.47
2019-06-26T23:36:03.816Z,64.67
2019-06-26T23:38:10.550Z,53.87
2019-06-26T23:40:18.045Z,54.77
2019-06-26T23:42:24.166Z,44.53
2019-06-26T23:44:43.655Z,43.07
2019-06-26T23:46:56.387Z,43.03
2019-06-26T23:49:02.283Z,35.53
2019-06-26T23:51:10.595Z,30.77
2019-06-26T23:53:17.028Z,24.07
2019-06-26T23:55:23.284Z,20.97
2019-06-26T23:57:29.640Z,22.10
2019-06-26T23:59:37.775Z,25.30
